Time;durP1;ratioP1;P1;durP2;ratioP2;P2;SDS_P1;SDS_P2;PMS_P1;PMS_P2;Temp;Humidity;BMP_temperature;BMP_pressure;BME280_temperature;BME280_humidity;BME280_pressure;Samples;Min_cycle;Max_cycle;Signal;HPM_P1;HPM_P2
2022/03/28 00:00:55;;;;;;;9.45;5.55;;;12.30;73.80;;;;;;5012163;28;20501;-63
2022/03/28 00:03:21;;;;;;;10.13;5.88;;;12.30;73.80;;;;;;5010511;28;20462;-63
2022/03/28 00:05:46;;;;;;;9.45;5.05;;;12.30;73.90;;;;;;5012113;28;20135;-62
2022/03/28 00:08:12;;;;;;;8.85;4.97;;;12.30;74.00;;;;;;5004400;28;20034;-64
2022/03/28 00:10:37;;;;;;;9.98;5.57;;;12.20;74.00;;;;;;5012556;28;20021;-64
2022/03/28 00:13:03;;;;;;;7.60;5.07;;;12.20;74.10;;;;;;5002716;28;20018;-65
2022/03/28 00:15:29;;;;;;;8.50;5.40;;;12.20;74.10;;;;;;4995601;28;20132;-64
2022/03/28 00:17:54;;;;;;;7.88;5.00;;;12.10;74.10;;;;;;4993421;28;20073;-64
2022/03/28 00:20:20;;;;;;;8.55;5.40;;;12.10;74.20;;;;;;4995880;28;20068;-64
2022/03/28 00:22:45;;;;;;;8.07;5.43;;;12.10;74.10;;;;;;5001657;28;20454;-63
2022/03/28 00:25:11;;;;;;;7.10;4.65;;;12.10;74.10;;;;;;5009469;28;20010;-63
2022/03/28 00:27:37;;;;;;;7.63;4.78;;;12.10;74.20;;;;;;5001674;28;20597;-63
2022/03/28 00:30:05;;;;;;;7.78;5.32;;;12.10;74.30;;;;;;5009778;28;20029;-63
2022/03/28 00:32:30;;;;;;;9.38;5.20;;;12.00;74.30;;;;;;5002826;28;20445;-64
2022/03/28 00:34:56;;;;;;;8.45;5.30;;;12.00;74.40;;;;;;4992085;28;20022;-64
2022/03/28 00:37:21;;;;;;;7.70;4.82;;;12.00;74.50;;;;;;5010319;28;20038;-64
2022/03/28 00:39:47;;;;;;;8.50;5.25;;;11.90;74.50;;;;;;4997521;28;20084;-64
2022/03/28 00:42:13;;;;;;;10.55;5.22;;;11.90;74.60;;;;;;4997783;28;20393;-63
2022/03/28 00:44:38;;;;;;;9.70;4.93;;;11.90;74.70;;;;;;5011283;28;20636;-63
2022/03/28 00:47:04;;;;;;;10.43;5.13;;;11.90;74.80;;;;;;5007269;28;20625;-63
2022/03/28 00:49:30;;;;;;;8.90;5.15;;;11.80;75.00;;;;;;5002811;28;20041;-63
2022/03/28 00:51:55;;;;;;;9.30;5.25;;;11.80;75.10;;;;;;5002426;28;20076;-64
2022/03/28 00:54:21;;;;;;;9.30;5.18;;;11.80;75.20;;;;;;5010404;28;20038;-64
2022/03/28 00:56:48;;;;;;;7.72;5.35;;;11.80;75.30;;;;;;5006541;28;20029;-64
2022/03/28 00:59:15;;;;;;;9.40;6.53;;;11.80;75.50;;;;;;4991793;28;20030;-63
2022/03/28 01:01:40;;;;;;;11.48;5.20;;;11.80;75.50;;;;;;4993716;28;20092;-63
2022/03/28 01:04:07;;;;;;;9.95;5.40;;;11.70;75.70;;;;;;5010004;28;20037;-63
2022/03/28 01:06:34;;;;;;;9.75;5.95;;;11.70;75.90;;;;;;5004376;28;20061;-63
2022/03/28 01:09:00;;;;;;;8.48;5.43;;;11.70;76.20;;;;;;5011683;28;20045;-64
2022/03/28 01:11:26;;;;;;;11.40;6.07;;;11.70;76.40;;;;;;4991705;28;20238;-63
2022/03/28 01:13:53;;;;;;;8.30;4.68;;;11.70;76.20;;;;;;5010317;28;20025;-63
2022/03/28 01:16:19;;;;;;;8.63;5.03;;;11.70;76.30;;;;;;5006493;28;20389;-63
2022/03/28 01:18:47;;;;;;;12.23;5.80;;;11.70;76.30;;;;;;5010084;28;20057;-63
2022/03/28 01:21:13;;;;;;;10.45;5.90;;;11.70;76.60;;;;;;5008348;28;20042;-64
2022/03/28 01:23:39;;;;;;;10.98;5.47;;;11.70;76.60;;;;;;5009913;28;20421;-63
2022/03/28 01:26:06;;;;;;;8.35;5.22;;;11.70;76.60;;;;;;5007598;28;20033;-63
2022/03/28 01:28:32;;;;;;;12.57;5.32;;;11.60;76.50;;;;;;5006203;28;20496;-63
2022/03/28 01:30:58;;;;;;;10.20;5.55;;;11.60;76.40;;;;;;5011397;28;20029;-63
2022/03/28 01:33:24;;;;;;;8.30;5.05;;;11.60;76.40;;;;;;5000969;28;20030;-63
2022/03/28 01:35:52;;;;;;;8.23;5.20;;;11.50;76.30;;;;;;4997619;28;20053;-63
2022/03/28 01:38:19;;;;;;;7.00;5.13;;;11.50;76.50;;;;;;4998216;28;20030;-64
2022/03/28 01:40:51;;;;;;;7.53;4.82;;;11.50;76.50;;;;;;5007147;28;20494;-63
2022/03/28 01:43:18;;;;;;;9.63;5.32;;;11.40;76.60;;;;;;5010102;28;20033;-63
2022/03/28 01:45:44;;;;;;;9.32;5.13;;;11.40;76.80;;;;;;5008010;28;20045;-64
2022/03/28 01:48:11;;;;;;;12.02;5.55;;;11.40;76.80;;;;;;5009988;28;20389;-64
2022/03/28 01:50:37;;;;;;;8.50;5.40;;;11.30;77.00;;;;;;5008092;28;20084;-64
2022/03/28 01:53:03;;;;;;;7.57;4.90;;;11.30;77.00;;;;;;5003466;28;20028;-64
2022/03/28 01:55:29;;;;;;;8.90;5.18;;;11.30;77.00;;;;;;5004024;28;20034;-64
2022/03/28 01:57:54;;;;;;;8.65;5.50;;;11.30;77.00;;;;;;5009843;28;20033;-64
2022/03/28 02:00:23;;;;;;;7.78;5.70;;;11.30;77.20;;;;;;5009595;28;20053;-64
2022/03/28 02:02:49;;;;;;;9.40;4.90;;;11.30;77.30;;;;;;5003744;28;20105;-64
2022/03/28 02:05:15;;;;;;;8.35;4.88;;;11.20;77.40;;;;;;5007901;28;20121;-64
2022/03/28 02:07:46;;;;;;;10.10;5.75;;;11.20;77.50;;;;;;4992544;28;20065;-64
2022/03/28 02:10:15;;;;;;;11.23;5.28;;;11.20;77.70;;;;;;5007193;28;20137;-64
2022/03/28 02:12:41;;;;;;;9.63;5.82;;;11.20;78.40;;;;;;5004556;28;20382;-64
2022/03/28 02:15:07;;;;;;;8.57;5.30;;;11.20;78.00;;;;;;4991455;28;20034;-64
2022/03/28 02:17:34;;;;;;;9.57;5.38;;;11.10;77.90;;;;;;4995673;28;20034;-64
2022/03/28 02:19:59;;;;;;;9.20;6.35;;;11.10;78.10;;;;;;5007662;28;20075;-64
2022/03/28 02:22:25;;;;;;;13.30;6.50;;;11.10;78.10;;;;;;4999820;28;20117;-64
2022/03/28 02:24:51;;;;;;;11.20;5.55;;;11.10;78.40;;;;;;5006005;28;20486;-64
2022/03/28 02:27:16;;;;;;;12.13;5.57;;;11.10;78.40;;;;;;5001328;28;20088;-64
2022/03/28 02:29:42;;;;;;;10.02;5.35;;;11.10;78.70;;;;;;5002686;28;20112;-64
2022/03/28 02:32:08;;;;;;;9.57;5.40;;;11.10;78.70;;;;;;5002706;28;20026;-64
2022/03/28 02:34:34;;;;;;;9.23;5.30;;;11.10;78.70;;;;;;5010341;28;20049;-63
2022/03/28 02:36:59;;;;;;;9.80;5.03;;;11.10;78.80;;;;;;5001762;28;20026;-63
2022/03/28 02:39:25;;;;;;;8.75;5.32;;;11.00;78.80;;;;;;4998110;28;20436;-63
2022/03/28 02:41:51;;;;;;;8.93;5.13;;;11.00;79.00;;;;;;5004767;28;20029;-63
2022/03/28 02:44:17;;;;;;;9.82;5.80;;;11.00;79.00;;;;;;4997466;28;20027;-63
2022/03/28 02:46:43;;;;;;;9.50;5.22;;;11.00;79.10;;;;;;5003170;28;20044;-62
2022/03/28 02:49:09;;;;;;;9.85;5.25;;;10.90;79.20;;;;;;5002795;28;20117;-64
2022/03/28 02:51:35;;;;;;;8.63;5.25;;;11.00;79.50;;;;;;5011447;28;20137;-63
2022/03/28 02:54:00;;;;;;;15.75;7.38;;;10.90;79.60;;;;;;5003257;28;20049;-63
2022/03/28 02:56:26;;;;;;;9.93;5.85;;;10.90;79.80;;;;;;5012203;28;20482;-63
2022/03/28 02:58:51;;;;;;;12.43;6.10;;;10.90;80.00;;;;;;5001595;28;20030;-63
2022/03/28 03:01:17;;;;;;;11.63;5.63;;;10.90;80.10;;;;;;5009803;28;20392;-63
2022/03/28 03:03:42;;;;;;;9.95;5.43;;;10.90;80.10;;;;;;5001886;28;20030;-63
2022/03/28 03:06:08;;;;;;;9.38;5.38;;;10.90;80.20;;;;;;5009758;28;20034;-63
2022/03/28 03:08:34;;;;;;;9.93;5.18;;;10.90;80.30;;;;;;5012115;28;20038;-63
2022/03/28 03:10:59;;;;;;;12.35;5.93;;;10.80;80.40;;;;;;5008046;28;20489;-63
2022/03/28 03:13:25;;;;;;;11.38;5.43;;;10.80;80.50;;;;;;5002041;28;20084;-63
2022/03/28 03:15:50;;;;;;;11.10;5.18;;;10.80;80.60;;;;;;5010263;28;20638;-64
2022/03/28 03:18:16;;;;;;;13.55;6.00;;;10.80;81.30;;;;;;5003986;28;20022;-64
2022/03/28 03:20:41;;;;;;;10.95;6.05;;;10.80;80.80;;;;;;4995501;28;20042;-63
2022/03/28 03:23:07;;;;;;;9.60;5.18;;;10.80;80.90;;;;;;4995653;28;20065;-63
2022/03/28 03:25:32;;;;;;;8.90;5.60;;;10.80;81.00;;;;;;5000720;28;20118;-63
2022/03/28 03:27:57;;;;;;;10.15;5.95;;;10.80;81.00;;;;;;4995719;28;20018;-63
2022/03/28 03:30:23;;;;;;;12.10;6.40;;;10.70;81.00;;;;;;5007467;28;20072;-62
2022/03/28 03:32:49;;;;;;;13.57;5.78;;;10.70;81.00;;;;;;4996736;28;20030;-63
2022/03/28 03:35:14;;;;;;;13.30;6.35;;;10.70;81.00;;;;;;5005320;28;20033;-63
2022/03/28 03:37:40;;;;;;;9.40;4.97;;;10.70;81.10;;;;;;5003070;28;20460;-64
2022/03/28 03:40:07;;;;;;;9.82;5.50;;;10.70;81.10;;;;;;4993673;28;20478;-64
2022/03/28 03:42:33;;;;;;;11.60;5.97;;;10.60;81.20;;;;;;5001630;28;20030;-64
2022/03/28 03:45:00;;;;;;;12.80;6.03;;;10.60;81.20;;;;;;4993322;28;20030;-63
2022/03/28 03:47:26;;;;;;;14.00;5.70;;;10.60;81.40;;;;;;5005502;28;20072;-63
2022/03/28 03:49:51;;;;;;;13.13;6.20;;;10.60;81.40;;;;;;5012612;28;20053;-63
2022/03/28 03:52:17;;;;;;;8.63;5.53;;;10.50;81.40;;;;;;5007585;28;20486;-63
2022/03/28 03:54:42;;;;;;;12.77;5.32;;;10.50;81.60;;;;;;4993147;28;20089;-63
2022/03/28 03:57:08;;;;;;;10.32;5.20;;;10.50;81.60;;;;;;5003614;28;20018;-63
2022/03/28 03:59:34;;;;;;;10.07;5.00;;;10.60;81.70;;;;;;5012623;28;20165;-66
2022/03/28 04:01:59;;;;;;;12.20;6.28;;;10.50;81.80;;;;;;5001803;28;20065;-65
2022/03/28 04:04:25;;;;;;;12.27;6.30;;;10.40;81.90;;;;;;5010947;28;20384;-65
2022/03/28 04:06:51;;;;;;;10.82;5.88;;;10.40;82.10;;;;;;4994602;28;20054;-65
2022/03/28 04:09:16;;;;;;;11.95;6.90;;;10.40;82.30;;;;;;4993090;28;20065;-65
2022/03/28 04:11:42;;;;;;;11.70;5.97;;;10.40;82.40;;;;;;5004054;28;20108;-64
2022/03/28 04:14:07;;;;;;;11.82;5.90;;;10.40;82.40;;;;;;5010779;28;20030;-65
2022/03/28 04:16:34;;;;;;;13.93;6.13;;;10.30;82.50;;;;;;5007969;28;20033;-65
2022/03/28 04:18:59;;;;;;;9.20;5.47;;;10.30;82.60;;;;;;5011282;28;20121;-65
2022/03/28 04:21:25;;;;;;;13.20;5.72;;;10.30;82.80;;;;;;5006692;28;20710;-65
2022/03/28 04:23:50;;;;;;;12.63;6.60;;;10.30;82.90;;;;;;5005217;28;20117;-65
2022/03/28 04:26:16;;;;;;;13.55;6.40;;;10.30;83.00;;;;;;4992170;28;20100;-65
2022/03/28 04:28:42;;;;;;;11.20;5.50;;;10.30;83.10;;;;;;5009922;28;20037;-65
2022/03/28 04:31:07;;;;;;;12.20;5.93;;;10.30;83.20;;;;;;5008622;28;20122;-65
2022/03/28 04:33:33;;;;;;;10.85;6.00;;;10.20;83.40;;;;;;5005436;28;20021;-65
2022/03/28 04:35:58;;;;;;;11.18;6.07;;;10.20;83.50;;;;;;5005437;28;20045;-65
2022/03/28 04:38:25;;;;;;;12.85;5.95;;;10.20;83.60;;;;;;5011496;28;20117;-65
2022/03/28 04:40:51;;;;;;;12.18;6.20;;;10.20;83.80;;;;;;5008537;28;20389;-65
2022/03/28 04:43:16;;;;;;;11.55;6.35;;;10.20;83.90;;;;;;5010525;28;20040;-66
2022/03/28 04:45:42;;;;;;;10.10;6.05;;;10.10;84.00;;;;;;5008689;28;20033;-65
2022/03/28 04:48:08;;;;;;;13.13;6.10;;;10.10;84.20;;;;;;4993289;28;20497;-65
2022/03/28 04:50:33;;;;;;;15.85;5.72;;;10.10;84.50;;;;;;4992537;28;20030;-65
2022/03/28 04:52:59;;;;;;;12.40;5.35;;;10.10;84.60;;;;;;4996019;28;20033;-65
2022/03/28 04:55:25;;;;;;;13.65;6.57;;;10.10;84.80;;;;;;5008784;28;20033;-64
2022/03/28 04:57:51;;;;;;;12.48;5.95;;;10.10;85.00;;;;;;5009582;28;20149;-65
2022/03/28 05:00:16;;;;;;;10.63;5.80;;;10.10;85.20;;;;;;5006961;28;20109;-65
2022/03/28 05:02:43;;;;;;;14.32;6.15;;;10.10;85.50;;;;;;4993977;28;20057;-65
2022/03/28 05:05:08;;;;;;;11.10;6.82;;;10.10;85.60;;;;;;5008002;28;20049;-65
2022/03/28 05:07:35;;;;;;;9.55;5.85;;;10.10;85.70;;;;;;4991706;28;20046;-64
2022/03/28 05:10:01;;;;;;;15.43;7.43;;;10.10;85.90;;;;;;4991773;28;20023;-64
2022/03/28 05:12:27;;;;;;;13.68;6.20;;;10.10;86.00;;;;;;4991785;28;20069;-64
2022/03/28 05:14:54;;;;;;;10.13;4.93;;;10.10;86.10;;;;;;4991821;28;20032;-65
2022/03/28 05:17:30;;;;;;;12.07;6.13;;;10.10;86.40;;;;;;5008762;28;20421;-66
2022/03/28 05:19:59;;;;;;;10.52;5.32;;;10.10;86.40;;;;;;5005524;28;20081;-66
2022/03/28 05:22:25;;;;;;;11.20;5.60;;;10.10;86.50;;;;;;5005996;28;20041;-66
2022/03/28 05:24:52;;;;;;;13.95;5.75;;;10.10;86.70;;;;;;4997638;28;20057;-66
2022/03/28 05:27:18;;;;;;;13.90;6.05;;;10.10;86.90;;;;;;4992060;28;20045;-65
2022/03/28 05:29:44;;;;;;;12.05;6.63;;;10.10;87.00;;;;;;4991906;28;20034;-65
2022/03/28 05:32:10;;;;;;;12.02;5.82;;;10.10;87.20;;;;;;5004203;28;20122;-65
2022/03/28 05:34:36;;;;;;;12.10;6.22;;;10.10;87.20;;;;;;5002182;28;20510;-65
2022/03/28 05:37:04;;;;;;;14.25;6.55;;;10.20;87.50;;;;;;4997520;28;20045;-64
2022/03/28 05:39:33;;;;;;;17.35;6.43;;;10.10;87.70;;;;;;5014755;28;20093;-64
2022/03/28 05:41:59;;;;;;;14.02;6.03;;;10.10;87.80;;;;;;5003982;28;20042;-65
2022/03/28 05:44:25;;;;;;;11.82;6.38;;;10.20;87.90;;;;;;5010049;28;20072;-65
2022/03/28 05:46:51;;;;;;;14.77;6.82;;;10.20;88.00;;;;;;5008837;28;20079;-64
2022/03/28 05:49:18;;;;;;;11.80;6.45;;;10.20;88.00;;;;;;5005913;28;20038;-64
2022/03/28 05:51:43;;;;;;;12.27;5.82;;;10.20;88.20;;;;;;4996699;28;20430;-64
2022/03/28 05:54:09;;;;;;;11.18;6.25;;;10.20;88.20;;;;;;4995764;28;20114;-64
2022/03/28 05:56:34;;;;;;;11.85;7.00;;;10.30;88.20;;;;;;4999232;28;20088;-65
2022/03/28 05:59:02;;;;;;;17.50;6.68;;;10.30;88.30;;;;;;4995320;28;20033;-64
2022/03/28 06:01:28;;;;;;;12.98;6.68;;;10.30;88.40;;;;;;4998096;28;20061;-64
2022/03/28 06:03:54;;;;;;;14.00;7.18;;;10.30;88.50;;;;;;5002882;28;20026;-65
2022/03/28 06:06:19;;;;;;;13.07;6.70;;;10.30;88.60;;;;;;4995171;28;20138;-64
2022/03/28 06:08:45;;;;;;;12.45;7.30;;;10.40;88.70;;;;;;5001752;28;20466;-64
2022/03/28 06:11:10;;;;;;;13.60;6.60;;;10.40;89.00;;;;;;4997225;28;20026;-63
2022/03/28 06:13:36;;;;;;;12.43;6.57;;;10.40;88.90;;;;;;5005746;28;20087;-63
2022/03/28 06:16:03;;;;;;;15.98;6.57;;;10.40;89.00;;;;;;5011975;28;20033;-64
2022/03/28 06:18:28;;;;;;;15.60;6.95;;;10.40;88.90;;;;;;4997595;28;20037;-64
2022/03/28 06:20:54;;;;;;;17.35;6.47;;;10.40;89.20;;;;;;5005395;28;20038;-64
2022/03/28 06:23:19;;;;;;;14.45;7.03;;;10.40;89.20;;;;;;5008176;28;20026;-65
2022/03/28 06:25:45;;;;;;;11.70;6.38;;;10.50;89.20;;;;;;5011025;28;20548;-65
2022/03/28 06:28:12;;;;;;;12.45;6.15;;;10.50;89.30;;;;;;5006814;28;20025;-64
2022/03/28 06:30:37;;;;;;;13.90;7.47;;;10.50;89.30;;;;;;5011590;28;20042;-64
2022/03/28 06:33:03;;;;;;;12.05;6.53;;;10.50;89.30;;;;;;4999827;28;20025;-64
2022/03/28 06:35:29;;;;;;;15.27;6.70;;;10.50;89.30;;;;;;5011764;28;20025;-64
2022/03/28 06:37:55;;;;;;;16.13;7.13;;;10.60;89.50;;;;;;5013140;28;20031;-64
2022/03/28 06:40:21;;;;;;;14.75;7.20;;;10.60;89.40;;;;;;5011514;28;20041;-64
2022/03/28 06:42:47;;;;;;;14.38;7.60;;;10.60;89.60;;;;;;4993335;28;20041;-63
2022/03/28 06:45:13;;;;;;;12.27;6.32;;;10.70;89.80;;;;;;5010878;28;20022;-65
2022/03/28 06:47:39;;;;;;;13.77;6.53;;;10.70;89.90;;;;;;4995965;28;20107;-65
2022/03/28 06:50:06;;;;;;;10.65;6.93;;;10.70;89.80;;;;;;5004949;28;20062;-65
2022/03/28 06:52:33;;;;;;;14.30;7.40;;;10.80;89.60;;;;;;5011548;28;20026;-65
2022/03/28 06:54:59;;;;;;;16.77;7.53;;;10.80;89.50;;;;;;5010492;28;20096;-65
2022/03/28 06:57:24;;;;;;;13.32;7.18;;;10.90;89.40;;;;;;5012668;28;20065;-64
2022/03/28 06:59:50;;;;;;;13.85;7.13;;;10.90;89.50;;;;;;5004919;28;20029;-64
2022/03/28 07:02:15;;;;;;;13.38;7.10;;;11.00;89.40;;;;;;5002402;28;20588;-64
2022/03/28 07:04:41;;;;;;;13.73;6.88;;;11.00;89.30;;;;;;5004281;28;20025;-64
2022/03/28 07:07:08;;;;;;;11.45;6.45;;;11.10;89.10;;;;;;5000094;28;20049;-63
2022/03/28 07:09:36;;;;;;;10.50;6.28;;;11.10;89.00;;;;;;5010633;28;20030;-63
2022/03/28 07:12:05;;;;;;;15.20;6.80;;;11.20;88.80;;;;;;5013225;28;20088;-64
2022/03/28 07:14:30;;;;;;;10.82;5.95;;;11.20;88.70;;;;;;5001628;28;20512;-64
2022/03/28 07:16:55;;;;;;;12.25;5.95;;;11.30;88.70;;;;;;5002477;28;20022;-64
2022/03/28 07:19:21;;;;;;;16.23;6.68;;;11.30;88.60;;;;;;5000205;28;20122;-63
2022/03/28 07:21:47;;;;;;;12.32;6.45;;;11.30;88.30;;;;;;5005769;28;20069;-64
2022/03/28 07:24:12;;;;;;;13.70;7.20;;;11.40;88.10;;;;;;4996487;28;20072;-64
2022/03/28 07:26:38;;;;;;;13.75;5.75;;;11.40;87.80;;;;;;5000255;28;20057;-64
2022/03/28 07:29:04;;;;;;;12.98;6.68;;;11.40;87.70;;;;;;5001705;28;20037;-64
2022/03/28 07:31:30;;;;;;;12.30;6.55;;;11.40;87.50;;;;;;5001643;28;20121;-64
2022/03/28 07:36:40;;;;;;;13.15;5.82;;;11.50;87.20;;;;;;4996814;28;20137;-64
2022/03/28 07:39:05;;;;;;;10.45;6.57;;;11.50;87.10;;;;;;5001485;28;20630;-64
2022/03/28 07:41:30;;;;;;;11.70;6.28;;;11.60;87.00;;;;;;5003792;28;20058;-64
2022/03/28 07:43:56;;;;;;;13.80;5.63;;;11.60;86.80;;;;;;5005900;28;20022;-64
2022/03/28 07:46:21;;;;;;;10.60;6.40;;;11.60;86.70;;;;;;5002924;28;20030;-64
2022/03/28 07:48:47;;;;;;;9.88;5.93;;;11.60;86.60;;;;;;4992806;28;20026;-64
2022/03/28 07:51:12;;;;;;;13.35;6.00;;;11.60;86.30;;;;;;4996439;28;20125;-64
2022/03/28 07:53:39;;;;;;;14.68;6.43;;;11.70;86.20;;;;;;5019057;28;20029;-65
2022/03/28 07:56:04;;;;;;;10.30;5.72;;;11.70;86.10;;;;;;5008428;28;20022;-64
2022/03/28 07:58:30;;;;;;;10.43;5.82;;;11.70;86.10;;;;;;5000407;28;20104;-64
2022/03/28 08:00:55;;;;;;;11.23;6.00;;;11.80;86.00;;;;;;5004240;28;20074;-63
2022/03/28 08:03:21;;;;;;;11.88;6.30;;;11.80;85.80;;;;;;4998026;28;20033;-64
2022/03/28 08:05:47;;;;;;;9.20;5.32;;;11.90;85.40;;;;;;4995167;28;21066;-65
2022/03/28 08:08:12;;;;;;;10.23;5.65;;;11.90;85.40;;;;;;5002129;28;20129;-65
2022/03/28 08:10:38;;;;;;;16.58;7.57;;;11.90;85.30;;;;;;4997279;28;20474;-65
2022/03/28 08:13:03;;;;;;;16.92;7.72;;;12.00;85.10;;;;;;5004633;28;20035;-65
2022/03/28 08:15:30;;;;;;;10.32;5.60;;;12.00;85.00;;;;;;5008602;28;20029;-64
2022/03/28 08:17:58;;;;;;;10.30;5.82;;;12.10;84.70;;;;;;5005212;28;20061;-64
2022/03/28 08:20:24;;;;;;;10.32;5.50;;;12.10;84.50;;;;;;4992330;28;20125;-64
2022/03/28 08:22:51;;;;;;;9.50;5.45;;;12.20;84.30;;;;;;5025690;28;20109;-64
2022/03/28 08:25:18;;;;;;;12.88;6.18;;;12.20;84.00;;;;;;4992878;28;20084;-64
2022/03/28 08:27:44;;;;;;;10.13;6.00;;;12.30;83.90;;;;;;5008880;28;20026;-66
2022/03/28 08:30:11;;;;;;;12.93;5.78;;;12.30;83.80;;;;;;4992373;28;20032;-65
2022/03/28 08:32:38;;;;;;;9.40;5.35;;;12.40;83.70;;;;;;5005854;28;20044;-64
2022/03/28 08:35:05;;;;;;;14.35;5.78;;;12.40;83.50;;;;;;4992105;28;20022;-65
2022/03/28 08:37:31;;;;;;;10.20;6.20;;;12.50;83.60;;;;;;5007708;28;20517;-64
2022/03/28 08:39:57;;;;;;;11.57;5.57;;;12.60;83.30;;;;;;4994367;28;20030;-64
2022/03/28 08:42:25;;;;;;;11.43;5.65;;;12.60;83.20;;;;;;5005800;28;20034;-64
2022/03/28 08:44:51;;;;;;;8.98;5.45;;;12.60;83.10;;;;;;5002293;28;20117;-64
2022/03/28 08:47:23;;;;;;;14.00;5.57;;;12.70;83.00;;;;;;5003637;28;20176;-65
2022/03/28 08:49:53;;;;;;;11.10;5.43;;;12.80;83.00;;;;;;5009247;28;20489;-65
2022/03/28 08:52:20;;;;;;;9.13;5.60;;;12.80;83.00;;;;;;5000914;28;20378;-65
2022/03/28 08:54:46;;;;;;;8.88;4.97;;;12.90;83.00;;;;;;4995407;28;20084;-64
2022/03/28 08:57:13;;;;;;;9.65;4.88;;;13.00;82.70;;;;;;4999821;28;20110;-64
2022/03/28 08:59:39;;;;;;;11.43;5.72;;;13.00;82.50;;;;;;4998061;28;20191;-64
2022/03/28 09:02:04;;;;;;;8.50;4.70;;;13.10;82.40;;;;;;4997790;28;20586;-63
2022/03/28 09:04:30;;;;;;;11.77;5.00;;;13.20;82.40;;;;;;4991977;28;20363;-63
2022/03/28 09:06:57;;;;;;;10.77;5.25;;;13.20;82.60;;;;;;4995491;28;20185;-63
2022/03/28 09:09:27;;;;;;;7.88;4.38;;;13.30;81.90;;;;;;5002596;28;20112;-63
2022/03/28 09:11:58;;;;;;;10.57;5.15;;;13.40;81.40;;;;;;5000039;28;20029;-63
2022/03/28 09:14:32;;;;;;;6.68;4.05;;;13.40;81.00;;;;;;5010316;28;20072;-63
2022/03/28 09:17:04;;;;;;;13.02;4.63;;;13.40;80.80;;;;;;5005204;28;20381;-62
2022/03/28 09:19:55;;;;;;;7.38;4.45;;;13.50;80.30;;;;;;5008135;28;20087;-63
2022/03/28 09:22:25;;;;;;;9.10;4.70;;;13.60;80.00;;;;;;4993663;28;20452;-63
2022/03/28 09:24:53;;;;;;;8.35;4.47;;;13.60;79.80;;;;;;4999041;28;20018;-64
2022/03/28 09:27:22;;;;;;;11.55;4.30;;;13.70;79.30;;;;;;5007058;28;20489;-64
2022/03/28 09:30:05;;;;;;;8.73;5.03;;;13.80;79.10;;;;;;5009529;28;20343;-64
2022/03/28 09:32:52;;;;;;;8.80;3.95;;;13.80;78.80;;;;;;5014429;28;20025;-64
2022/03/28 09:35:21;;;;;;;8.65;4.88;;;13.90;78.70;;;;;;5006109;28;20030;-63
2022/03/28 09:37:58;;;;;;;9.32;4.43;;;13.90;77.80;;;;;;5012616;28;20485;-64
2022/03/28 09:40:40;;;;;;;8.38;4.78;;;14.00;77.90;;;;;;5006523;28;20096;-64
2022/03/28 09:43:30;;;;;;;10.00;4.55;;;14.00;77.90;;;;;;5015301;28;20112;-64
2022/03/28 09:45:58;;;;;;;8.00;4.32;;;14.10;77.80;;;;;;5001106;28;20023;-64
2022/03/28 09:48:26;;;;;;;10.00;4.95;;;14.20;77.50;;;;;;5015123;28;20045;-64
2022/03/28 09:51:01;;;;;;;7.40;4.47;;;14.30;76.90;;;;;;5020783;28;20033;-64
2022/03/28 09:53:28;;;;;;;;;;;14.40;76.40;;;;;;5000404;28;20018;-64
2022/03/28 09:55:59;;;;;;;8.23;4.60;;;14.50;77.20;;;;;;5001798;28;19909;-64
2022/03/28 09:58:39;;;;;;;7.50;3.58;;;14.50;75.40;;;;;;5014270;28;20552;-64
2022/03/28 10:01:07;;;;;;;11.05;4.43;;;14.60;75.50;;;;;;5014624;28;20050;-64
2022/03/28 10:03:35;;;;;;;7.47;4.18;;;14.70;75.20;;;;;;5009501;28;20501;-64
2022/03/28 10:06:01;;;;;;;7.25;3.83;;;14.80;75.00;;;;;;5003368;28;20037;-64
2022/03/28 10:08:28;;;;;;;9.43;4.13;;;14.80;74.20;;;;;;5012771;28;20033;-64
2022/03/28 10:10:53;;;;;;;8.45;4.13;;;14.90;73.70;;;;;;5004425;28;20037;-64
2022/03/28 10:13:21;;;;;;;7.82;4.63;;;14.90;73.10;;;;;;5006420;28;20050;-64
2022/03/28 10:15:47;;;;;;;10.20;4.60;;;15.00;73.20;;;;;;5008747;28;20029;-64
2022/03/28 10:18:13;;;;;;;8.10;4.93;;;15.10;73.10;;;;;;5010107;28;20026;-63
2022/03/28 10:20:42;;;;;;;8.65;4.40;;;15.20;72.90;;;;;;4998548;28;20444;-63
2022/03/28 10:23:08;;;;;;;6.93;4.07;;;15.30;72.30;;;;;;4997875;28;20382;-63
2022/03/28 10:25:35;;;;;;;8.73;4.05;;;15.30;71.50;;;;;;4999344;28;20440;-64
2022/03/28 10:28:01;;;;;;;8.45;4.05;;;15.40;70.00;;;;;;5010040;28;20371;-64
2022/03/28 10:30:28;;;;;;;9.68;4.43;;;15.50;69.70;;;;;;5013692;28;20041;-64
2022/03/28 10:33:14;;;;;;;6.30;3.60;;;15.50;69.40;;;;;;5008538;28;20041;-65
2022/03/28 10:35:55;;;;;;;6.30;3.80;;;15.60;69.60;;;;;;5003576;28;20036;-64
2022/03/28 10:38:22;;;;;;;6.63;4.05;;;15.70;68.90;;;;;;5010657;28;20061;-64
2022/03/28 10:40:59;;;;;;;7.93;4.00;;;15.70;68.20;;;;;;5010351;28;20096;-63
2022/03/28 10:43:30;;;;;;;6.05;3.72;;;15.70;67.50;;;;;;5009780;28;20026;-64
2022/03/28 10:45:59;;;;;;;7.95;4.78;;;15.80;67.80;;;;;;5002201;28;20025;-63
2022/03/28 10:48:58;;;;;;;10.05;4.00;;;15.90;67.90;;;;;;5009518;28;20026;-63
2022/03/28 10:51:29;;;;;;;10.35;3.70;;;16.00;68.40;;;;;;5005067;28;20041;-64
2022/03/28 10:53:58;;;;;;;7.95;3.70;;;16.00;67.80;;;;;;5003289;28;20037;-63
2022/03/28 10:56:33;;;;;;;6.75;3.75;;;16.10;67.50;;;;;;5006673;28;20030;-64
2022/03/28 10:59:05;;;;;;;7.10;3.88;;;16.20;67.30;;;;;;5005939;28;20438;-64
2022/03/28 11:01:36;;;;;;;8.65;4.55;;;16.20;66.80;;;;;;5012663;28;20128;-63
2022/03/28 11:04:04;;;;;;;9.00;5.10;;;16.30;67.30;;;;;;5011836;28;20441;-65
2022/03/28 11:06:53;;;;;;;9.13;4.60;;;16.40;67.50;;;;;;5002441;28;20058;-65
2022/03/28 11:09:45;;;;;;;10.88;4.65;;;16.50;67.60;;;;;;5000822;28;20022;-63
2022/03/28 11:12:20;;;;;;;11.10;4.32;;;16.60;67.80;;;;;;5013486;28;20030;-63
2022/03/28 11:14:51;;;;;;;;;;;16.60;67.80;;;;;;5011554;28;20029;-64
2022/03/28 11:17:22;;;;;;;11.00;4.53;;;16.70;68.40;;;;;;5005147;28;19910;-65
2022/03/28 11:20:03;;;;;;;7.80;4.18;;;16.70;67.50;;;;;;5000293;28;20032;-64
2022/03/28 11:22:47;;;;;;;8.02;4.40;;;16.70;67.40;;;;;;5005744;28;20042;-64
2022/03/28 11:25:34;;;;;;;10.00;4.90;;;16.80;67.50;;;;;;5010990;28;20569;-64
2022/03/28 11:28:14;;;;;;;9.38;3.92;;;16.80;67.90;;;;;;5000982;28;20049;-64
2022/03/28 11:30:49;;;;;;;9.45;3.92;;;16.80;67.20;;;;;;5008244;28;20118;-64
2022/03/28 11:33:17;;;;;;;9.07;3.58;;;16.90;67.30;;;;;;4999281;28;20049;-64
2022/03/28 11:36:01;;;;;;;6.53;3.90;;;16.90;67.20;;;;;;5009531;28;20029;-64
2022/03/28 11:38:35;;;;;;;5.38;3.17;;;16.90;67.30;;;;;;5005550;28;20030;-64
2022/03/28 11:41:02;;;;;;;7.28;3.55;;;16.90;67.10;;;;;;4997342;28;20501;-64
2022/03/28 11:43:37;;;;;;;10.15;4.88;;;17.00;67.10;;;;;;5003916;28;20096;-64
2022/03/28 11:46:10;;;;;;;8.23;4.03;;;17.00;67.10;;;;;;5012214;28;20040;-64
2022/03/28 11:48:37;;;;;;;6.93;3.50;;;17.00;66.90;;;;;;5010753;28;20041;-64
2022/03/28 11:51:16;;;;;;;7.15;3.60;;;17.00;66.80;;;;;;5006125;28;20614;-64
2022/03/28 11:53:43;;;;;;;6.90;3.05;;;17.00;66.30;;;;;;5003732;28;20096;-63
2022/03/28 11:56:08;;;;;;;5.22;2.67;;;17.00;66.40;;;;;;4998629;28;20101;-63
2022/03/28 11:58:34;;;;;;;5.90;3.15;;;17.10;65.90;;;;;;4994936;28;20169;-64
2022/03/28 12:01:13;;;;;;;3.85;2.13;;;17.10;65.60;;;;;;5010781;28;20033;-64
2022/03/28 12:03:50;;;;;;;5.05;2.30;;;17.10;65.00;;;;;;5005526;28;20114;-65
2022/03/28 12:06:38;;;;;;;6.25;2.40;;;17.10;64.80;;;;;;4993184;28;20379;-64
2022/03/28 12:09:07;;;;;;;5.82;2.47;;;17.10;65.00;;;;;;5004716;28;20022;-65
2022/03/28 12:11:38;;;;;;;7.47;2.80;;;17.10;64.70;;;;;;5002372;28;20185;-65
2022/03/28 12:14:04;;;;;;;3.92;2.33;;;17.10;64.30;;;;;;5008560;28;20418;-64
2022/03/28 12:16:29;;;;;;;4.10;2.38;;;17.20;64.50;;;;;;5019047;28;20112;-65
2022/03/28 12:18:58;;;;;;;5.32;2.13;;;17.20;64.20;;;;;;4993522;28;20042;-65
2022/03/28 12:21:26;;;;;;;4.05;2.35;;;17.20;64.00;;;;;;4996414;28;20096;-65
2022/03/28 12:23:52;;;;;;;10.38;2.90;;;17.20;64.00;;;;;;5004902;28;20506;-65
2022/03/28 12:26:17;;;;;;;6.50;2.30;;;17.20;64.00;;;;;;5001282;28;20053;-64
2022/03/28 12:28:45;;;;;;;3.60;2.10;;;17.20;63.70;;;;;;5008679;28;20021;-64
2022/03/28 12:31:12;;;;;;;6.60;2.28;;;17.20;63.30;;;;;;5004944;28;20036;-65
2022/03/28 12:33:39;;;;;;;4.82;2.88;;;17.20;63.20;;;;;;5005354;28;20022;-66
2022/03/28 12:36:07;;;;;;;4.60;2.10;;;17.20;63.00;;;;;;5004350;28;20037;-65
2022/03/28 12:38:41;;;;;;;5.80;2.33;;;17.20;63.10;;;;;;5004897;28;20080;-65
2022/03/28 12:41:16;;;;;;;4.20;2.20;;;17.20;63.20;;;;;;5001248;28;20436;-65
2022/03/28 12:43:47;;;;;;;5.72;2.53;;;17.20;63.20;;;;;;5006934;28;20359;-65
2022/03/28 12:46:15;;;;;;;6.05;2.97;;;17.20;63.20;;;;;;5005352;28;20120;-65
2022/03/28 12:48:43;;;;;;;6.40;2.80;;;17.20;63.50;;;;;;5001674;28;20076;-65